Time;durP1;ratioP1;P1;durP2;ratioP2;P2;SDS_P1;SDS_P2;PMS_P1;PMS_P2;Temp;Humidity;BMP_temperature;BMP_pressure;BME280_temperature;BME280_humidity;BME280_pressure;Samples;Min_cycle;Max_cycle;Signal;HPM_P1;HPM_P2
2023/08/28 00:01:33;;;;;;;12.93;7.70;;;15.70;99.90;15.20;99578;;;;541737;258;35660;-78
2023/08/28 00:04:01;;;;;;;10.13;5.50;;;15.70;99.90;15.20;99578;;;;547432;257;24169;-78
2023/08/28 00:06:29;;;;;;;12.10;4.90;;;15.70;99.90;15.20;99577;;;;547518;257;24143;-77
2023/08/28 00:08:59;;;;;;;4.83;4.10;;;15.70;99.90;15.20;99577;;;;547932;258;24183;-80
2023/08/28 00:11:24;;;;;;;9.10;4.60;;;15.70;99.90;15.20;99581;;;;543022;257;24149;-78
2023/08/28 00:13:52;;;;;;;8.97;4.60;;;15.70;99.90;15.10;99577;;;;545377;258;24158;-77
2023/08/28 00:16:23;;;;;;;7.00;4.90;;;15.60;99.90;15.10;99574;;;;547820;258;24197;-79
2023/08/28 00:18:53;;;;;;;6.07;4.67;;;15.60;99.90;15.10;99574;;;;555835;256;24191;-81
2023/08/28 00:21:24;;;;;;;12.27;8.07;;;15.60;99.90;15.20;99569;;;;543019;258;46530;-81
2023/08/28 00:23:52;;;;;;;8.13;5.43;;;15.70;99.90;15.20;99567;;;;547869;258;24176;-84
2023/08/28 00:26:21;;;;;;;7.37;5.33;;;15.60;99.90;15.20;99573;;;;547685;258;24185;-82
2023/08/28 00:28:49;;;;;;;5.93;4.53;;;15.60;99.90;15.20;99582;;;;548104;258;24144;-78
2023/08/28 00:31:17;;;;;;;10.57;5.07;;;15.60;99.90;15.10;99572;;;;547897;258;24176;-84
2023/08/28 00:33:45;;;;;;;8.03;4.43;;;15.60;99.90;15.10;99576;;;;547692;258;24180;-80
2023/08/28 00:36:16;;;;;;;5.97;4.67;;;15.60;99.90;15.10;99582;;;;547411;257;24158;-77
2023/08/28 00:38:42;;;;;;;8.83;4.80;;;15.60;99.90;15.10;99578;;;;547323;259;24243;-82
2023/08/28 00:41:10;;;;;;;6.53;4.07;;;15.60;99.90;15.10;99582;;;;547192;258;24175;-82
2023/08/28 00:43:38;;;;;;;5.60;4.67;;;15.60;99.90;15.10;99595;;;;547053;259;24174;-82
2023/08/28 00:46:06;;;;;;;6.47;4.93;;;15.60;99.90;15.10;99602;;;;546891;259;24167;-80
2023/08/28 00:48:34;;;;;;;5.33;4.40;;;15.60;99.90;15.10;99612;;;;546927;259;24143;-79
2023/08/28 00:51:04;;;;;;;11.90;5.20;;;15.60;99.90;15.10;99608;;;;544765;259;24146;-78
2023/08/28 00:53:34;;;;;;;6.27;4.80;;;15.60;99.90;15.10;99616;;;;543484;259;24218;-78
2023/08/28 00:55:58;;;;;;;8.10;4.23;;;15.60;99.90;15.10;99615;;;;546511;259;24138;-79
2023/08/28 00:58:29;;;;;;;4.27;3.90;;;15.50;99.90;15.00;99612;;;;546473;259;24201;-78
2023/08/28 01:00:54;;;;;;;6.27;4.70;;;15.50;99.90;15.00;99615;;;;542084;258;24156;-77
2023/08/28 01:03:23;;;;;;;5.70;4.20;;;15.50;99.90;15.00;99607;;;;546787;258;24172;-77
2023/08/28 01:06:21;;;;;;;6.33;4.43;;;15.50;99.90;15.00;99613;;;;546700;259;24189;-77
2023/08/28 01:09:08;;;;;;;5.73;4.33;;;15.40;99.90;14.90;99620;;;;555749;256;24156;-77
2023/08/28 01:11:52;;;;;;;4.80;3.70;;;15.40;99.90;14.90;99627;;;;550319;253;24155;-78
2023/08/28 01:14:32;;;;;;;3.70;3.40;;;15.40;99.90;14.90;99625;;;;554699;256;24167;-77
2023/08/28 01:17:00;;;;;;;4.20;3.20;;;15.40;99.90;14.80;99619;;;;547664;258;24144;-78
2023/08/28 01:19:33;;;;;;;3.60;2.87;;;15.30;99.90;14.80;99624;;;;547142;258;24167;-80
2023/08/28 01:22:25;;;;;;;9.27;3.03;;;15.30;99.90;14.80;99610;;;;547240;258;24224;-79
2023/08/28 01:24:53;;;;;;;2.67;2.47;;;15.30;99.90;14.70;99601;;;;546164;258;24146;-80
2023/08/28 01:27:23;;;;;;;5.10;4.60;;;15.20;99.90;14.70;99603;;;;541856;258;35579;-79
2023/08/28 01:30:10;;;;;;;6.53;4.60;;;15.20;99.90;14.70;99587;;;;549621;253;35574;-77
2023/08/28 01:32:39;;;;;;;4.17;2.73;;;15.20;99.90;14.70;99580;;;;536254;260;24213;-77
2023/08/28 01:35:16;;;;;;;4.47;2.70;;;15.20;99.90;14.70;99573;;;;541895;260;24133;-77
2023/08/28 01:37:43;;;;;;;3.37;2.50;;;15.20;99.90;14.60;99574;;;;551984;256;24167;-78
2023/08/28 01:40:11;;;;;;;3.80;2.57;;;15.10;99.90;14.60;99570;;;;557949;255;24187;-78
2023/08/28 01:42:38;;;;;;;2.53;2.30;;;15.00;99.90;14.60;99570;;;;546653;258;24149;-78
2023/08/28 01:45:07;;;;;;;4.93;2.53;;;15.00;99.90;14.50;99563;;;;544655;258;24145;-79
2023/08/28 01:47:35;;;;;;;2.43;2.30;;;15.00;99.90;14.50;99565;;;;546908;258;24223;-78
2023/08/28 01:50:02;;;;;;;6.40;2.70;;;15.00;99.90;14.50;99555;;;;546699;258;24140;-78
2023/08/28 01:52:31;;;;;;;2.23;2.13;;;14.90;99.90;14.50;99541;;;;546529;259;25184;-78
2023/08/28 01:55:02;;;;;;;4.33;2.70;;;14.90;99.90;14.40;99533;;;;546545;259;25276;-77
2023/08/28 01:57:27;;;;;;;3.23;2.60;;;14.90;99.90;14.40;99534;;;;541622;256;24140;-79
2023/08/28 01:59:55;;;;;;;2.80;2.60;;;14.80;99.90;14.30;99523;;;;546584;259;24126;-77
2023/08/28 02:02:23;;;;;;;2.17;1.97;;;14.80;99.90;14.30;99529;;;;546160;259;24177;-80
2023/08/28 02:04:51;;;;;;;2.93;2.60;;;14.70;99.90;14.20;99545;;;;546379;259;24142;-77
2023/08/28 02:07:19;;;;;;;3.60;2.50;;;14.70;99.90;14.20;99550;;;;546434;258;24131;-77
2023/08/28 02:09:47;;;;;;;4.53;2.93;;;14.70;99.90;14.30;99578;;;;554196;256;24233;-77
2023/08/28 02:12:14;;;;;;;2.57;2.37;;;14.70;99.90;14.30;99587;;;;546307;259;24165;-79
2023/08/28 02:14:43;;;;;;;2.87;2.67;;;14.80;99.90;14.40;99602;;;;546289;259;24228;-77
2023/08/28 02:17:11;;;;;;;4.27;3.13;;;14.80;99.90;14.40;99605;;;;546226;259;24204;-78
2023/08/28 02:19:39;;;;;;;2.87;2.60;;;14.80;99.90;14.50;99603;;;;544746;259;24141;-77
2023/08/28 02:22:07;;;;;;;2.67;2.20;;;14.90;99.90;14.50;99597;;;;546661;259;24184;-79
2023/08/28 02:24:35;;;;;;;4.13;2.83;;;14.90;99.90;14.50;99596;;;;546770;259;24245;-80
2023/08/28 02:27:03;;;;;;;2.90;2.60;;;14.90;99.90;14.50;99591;;;;547352;258;24184;-78
2023/08/28 02:29:31;;;;;;;3.37;3.07;;;14.90;99.90;14.50;99610;;;;547472;257;25202;-78
2023/08/28 02:31:59;;;;;;;2.87;2.57;;;14.90;99.90;14.50;99611;;;;547387;258;24204;-79
2023/08/28 02:34:27;;;;;;;2.93;2.20;;;14.90;99.90;14.50;99603;;;;547162;258;24145;-82
2023/08/28 02:36:55;;;;;;;6.27;2.57;;;14.90;99.90;14.50;99588;;;;546957;258;24192;-81
2023/08/28 02:39:23;;;;;;;3.40;2.60;;;14.90;99.90;14.50;99595;;;;546853;258;24195;-80
2023/08/28 02:41:51;;;;;;;2.70;2.50;;;14.90;99.90;14.50;99607;;;;546897;258;24211;-80
2023/08/28 02:44:19;;;;;;;5.17;2.60;;;14.90;99.90;14.50;99615;;;;546944;258;24163;-79
2023/08/28 02:46:47;;;;;;;3.43;2.50;;;14.90;99.90;14.50;99624;;;;546933;258;24248;-79
2023/08/28 02:49:15;;;;;;;3.20;2.90;;;14.90;99.90;14.50;99617;;;;546452;258;24181;-80
2023/08/28 02:51:42;;;;;;;2.80;2.60;;;14.90;99.90;14.50;99623;;;;544777;258;24204;-80
2023/08/28 02:54:10;;;;;;;5.22;3.85;;;14.90;99.90;14.50;99600;;;;542011;258;46600;-81
2023/08/28 02:56:42;;;;;;;3.93;3.00;;;14.90;99.90;14.50;99602;;;;546703;258;24129;-81
2023/08/28 02:59:08;;;;;;;4.57;2.80;;;14.90;99.90;14.50;99603;;;;554219;258;24282;-82
2023/08/28 03:01:35;;;;;;;3.10;2.53;;;14.90;99.90;14.60;99604;;;;546338;258;24150;-81
2023/08/28 03:04:04;;;;;;;2.93;2.43;;;14.90;99.90;14.60;99615;;;;546080;259;24196;-80
2023/08/28 03:06:34;;;;;;;3.00;2.70;;;15.00;99.90;14.60;99604;;;;546227;259;24146;-80
2023/08/28 03:09:02;;;;;;;4.53;2.97;;;15.00;99.90;14.60;99612;;;;546004;259;24180;-80
2023/08/28 03:11:33;;;;;;;4.37;2.67;;;15.00;99.90;14.60;99615;;;;546241;259;24204;-80
2023/08/28 03:13:58;;;;;;;3.37;3.07;;;15.00;99.90;14.60;99621;;;;546168;258;24149;-79
2023/08/28 03:16:26;;;;;;;2.90;2.43;;;15.00;99.90;14.60;99624;;;;545970;259;24142;-79
2023/08/28 03:18:53;;;;;;;3.00;2.60;;;15.00;99.90;14.60;99616;;;;546148;259;24166;-79
2023/08/28 03:21:21;;;;;;;3.17;2.93;;;15.00;99.90;14.60;99596;;;;544544;259;24222;-81
2023/08/28 03:23:49;;;;;;;2.83;2.63;;;15.00;99.90;14.60;99592;;;;546472;259;24138;-81
2023/08/28 03:26:21;;;;;;;2.70;2.50;;;14.90;99.90;14.50;99594;;;;546473;259;24130;-80
2023/08/28 03:28:46;;;;;;;2.53;2.23;;;14.90;99.90;14.50;99592;;;;541730;258;24192;-80
2023/08/28 03:31:14;;;;;;;5.03;2.47;;;14.90;99.90;14.50;99590;;;;546474;258;24197;-80
2023/08/28 03:33:42;;;;;;;2.40;2.20;;;14.90;99.90;14.50;99591;;;;546605;259;24148;-80
2023/08/28 03:36:10;;;;;;;2.63;2.37;;;14.90;99.90;14.50;99583;;;;546505;259;24155;-78
2023/08/28 03:38:39;;;;;;;3.50;3.10;;;14.90;99.90;14.50;99585;;;;547505;258;24130;-80
2023/08/28 03:41:10;;;;;;;4.27;2.57;;;14.90;99.90;14.50;99592;;;;547483;258;24133;-80
2023/08/28 03:43:35;;;;;;;2.50;2.30;;;14.90;99.90;14.50;99591;;;;547064;257;24145;-80
2023/08/28 03:46:03;;;;;;;4.40;2.93;;;14.90;99.90;14.50;99598;;;;547310;258;24140;-81
2023/08/28 03:48:31;;;;;;;5.70;2.97;;;14.90;99.90;14.50;99591;;;;547230;258;24178;-81
2023/08/28 03:51:00;;;;;;;4.00;2.40;;;14.90;99.90;14.50;99588;;;;546468;258;24204;-80
2023/08/28 03:53:28;;;;;;;2.87;2.67;;;14.90;99.90;14.50;99600;;;;554969;256;24138;-80
2023/08/28 03:55:56;;;;;;;2.50;1.97;;;14.90;99.90;14.50;99612;;;;546802;258;24169;-79
2023/08/28 03:58:24;;;;;;;2.27;2.10;;;14.90;99.90;14.40;99611;;;;546498;258;24245;-80
2023/08/28 04:00:53;;;;;;;2.33;2.23;;;14.90;99.90;14.50;99609;;;;546334;258;24166;-80
2023/08/28 04:03:20;;;;;;;3.07;2.57;;;14.90;99.90;14.50;99612;;;;544324;258;24183;-80
2023/08/28 04:05:48;;;;;;;2.83;2.63;;;14.80;99.90;14.40;99617;;;;545963;258;24168;-80
2023/08/28 04:08:16;;;;;;;2.87;2.67;;;14.90;99.90;14.50;99617;;;;546227;258;24179;-79
2023/08/28 04:10:49;;;;;;;3.33;2.60;;;14.90;99.90;14.50;99624;;;;546378;258;24228;-78
2023/08/28 04:13:14;;;;;;;2.60;2.40;;;14.90;99.90;14.50;99621;;;;546563;256;24243;-81
2023/08/28 04:15:44;;;;;;;4.10;3.07;;;14.90;99.90;14.50;99612;;;;546548;258;24134;-79
2023/08/28 04:18:09;;;;;;;3.17;2.60;;;14.90;99.90;14.50;99612;;;;546291;258;24213;-81
2023/08/28 04:20:37;;;;;;;3.03;2.73;;;15.00;99.90;14.60;99617;;;;545999;259;25223;-81
2023/08/28 04:23:06;;;;;;;3.17;2.87;;;15.00;99.90;14.60;99619;;;;544520;259;24277;-80
2023/08/28 04:25:35;;;;;;;3.57;2.97;;;15.10;99.90;14.60;99629;;;;546413;258;24202;-81
2023/08/28 04:28:03;;;;;;;3.57;3.17;;;15.00;99.90;14.60;99624;;;;546413;258;24198;-84
2023/08/28 04:30:30;;;;;;;5.40;2.90;;;15.00;99.90;14.50;99628;;;;554499;256;24154;-80
2023/08/28 04:32:58;;;;;;;4.93;2.67;;;15.00;99.90;14.50;99629;;;;546624;259;24161;-82
2023/08/28 04:35:26;;;;;;;3.17;2.87;;;14.90;99.90;14.40;99628;;;;546953;259;24142;-80
2023/08/28 04:37:57;;;;;;;5.37;3.10;;;14.80;99.90;14.40;99624;;;;547158;258;24134;-84
2023/08/28 04:40:25;;;;;;;5.50;2.80;;;14.80;99.90;14.40;99630;;;;556009;256;24176;-82
2023/08/28 04:42:54;;;;;;;3.50;3.20;;;14.80;99.90;14.30;99633;;;;547861;247;24184;-83
2023/08/28 04:45:25;;;;;;;3.17;2.47;;;14.70;99.90;14.40;99632;;;;547160;259;24150;-79
2023/08/28 04:47:49;;;;;;;3.53;3.20;;;14.80;99.90;14.60;99633;;;;549932;259;24272;-83
2023/08/28 04:50:17;;;;;;;3.63;3.33;;;15.00;99.90;15.40;99641;;;;556330;254;24172;-85
2023/08/28 04:52:45;;;;;;;3.90;3.33;;;15.70;99.90;16.10;99645;;;;555739;252;26309;-80
2023/08/28 04:55:13;;;;;;;3.13;2.93;;;16.50;99.90;16.50;99643;;;;545393;258;24130;-84
2023/08/28 04:57:41;;;;;;;3.47;2.80;;;16.90;99.90;16.90;99643;;;;547378;257;24211;-80
2023/08/28 05:00:09;;;;;;;3.00;2.80;;;17.40;99.90;16.70;99631;;;;546737;258;24192;-79
2023/08/28 05:02:37;;;;;;;3.00;2.67;;;17.20;99.90;16.30;99641;;;;555102;256;24176;-79
2023/08/28 05:05:04;;;;;;;5.30;2.90;;;16.80;99.90;16.60;99637;;;;542163;258;35581;-80
2023/08/28 05:07:32;;;;;;;3.20;2.90;;;16.90;99.90;18.10;99639;;;;554546;256;24156;-83
2023/08/28 05:10:01;;;;;;;3.53;3.23;;;19.80;99.90;19.70;99641;;;;546748;258;24138;-80
2023/08/28 05:12:29;;;;;;;2.73;2.53;;;19.70;99.90;21.20;99646;;;;546372;258;24186;-80
2023/08/28 05:15:00;;;;;;;2.47;2.37;;;21.30;99.90;22.60;99646;;;;547121;258;24169;-81
2023/08/28 05:17:25;;;;;;;4.77;2.00;;;22.70;99.90;23.90;99643;;;;549246;258;24141;-80
2023/08/28 05:19:53;;;;;;;1.40;1.30;;;25.30;99.90;25.00;99660;;;;546816;258;23188;-78
2023/08/28 05:22:21;;;;;;;1.43;1.30;;;25.20;99.90;26.00;99664;;;;546613;258;23184;-78
2023/08/28 05:24:49;;;;;;;1.70;1.60;;;26.40;99.90;26.80;99666;;;;544925;258;24172;-78
2023/08/28 05:27:17;;;;;;;2.35;1.85;;;27.20;99.90;27.70;99677;;;;546490;259;23184;-81
2023/08/28 05:29:45;;;;;;;1.87;1.73;;;28.10;99.90;28.50;99681;;;;546471;259;23144;-81
2023/08/28 05:32:13;;;;;;;1.80;1.70;;;28.90;99.90;29.50;99676;;;;546429;259;23198;-80
2023/08/28 05:34:41;;;;;;;1.42;1.42;;;29.90;99.90;30.20;99683;;;;546453;259;23156;-83
2023/08/28 05:37:09;;;;;;;1.67;1.50;;;30.70;99.90;30.80;99677;;;;546558;259;23159;-81
2023/08/28 05:39:38;;;;;;;2.05;1.83;;;31.40;99.90;31.50;99685;;;;546458;258;23172;-80
2023/08/28 05:42:04;;;;;;;2.58;1.30;;;32.10;99.90;32.00;99669;;;;546585;258;24154;-81
2023/08/28 05:44:32;;;;;;;2.30;1.75;;;32.60;99.90;32.30;99675;;;;546562;258;23147;-82
2023/08/28 05:47:01;;;;;;;1.62;1.37;;;33.50;99.90;32.80;99677;;;;546514;259;23151;-82
2023/08/28 05:49:30;;;;;;;1.83;1.73;;;33.90;99.90;33.20;99679;;;;546394;259;24165;-81
2023/08/28 05:52:00;;;;;;;2.58;1.83;;;33.90;99.90;33.60;99660;;;;546420;259;23167;-84
2023/08/28 05:54:26;;;;;;;2.17;1.45;;;34.30;99.90;34.00;99665;;;;548296;259;23172;-83
2023/08/28 05:56:53;;;;;;;3.35;1.50;;;34.70;99.90;34.40;99662;;;;544619;259;23165;-84
2023/08/28 05:59:22;;;;;;;3.15;1.85;;;35.60;99.40;35.00;99656;;;;546156;259;23152;-83
2023/08/28 06:01:51;;;;;;;2.90;1.85;;;36.00;96.50;35.40;99655;;;;547351;258;23160;-82
2023/08/28 06:04:19;;;;;;;3.55;2.22;;;36.00;96.50;35.80;99662;;;;555199;256;23151;-82
2023/08/28 06:06:47;;;;;;;2.03;1.80;;;36.40;98.60;36.30;99659;;;;546875;258;24220;-83
2023/08/28 06:09:15;;;;;;;2.60;1.85;;;36.90;89.60;36.70;99658;;;;547012;258;23235;-83
2023/08/28 06:11:43;;;;;;;1.92;1.83;;;37.90;90.90;37.40;99664;;;;546593;258;23204;-83
2023/08/28 06:14:11;;;;;;;2.80;1.95;;;37.90;90.80;38.00;99659;;;;546808;257;23191;-83
2023/08/28 06:16:43;;;;;;;1.98;1.87;;;38.40;74.60;38.20;99672;;;;546904;258;23151;-83
2023/08/28 06:19:08;;;;;;;1.42;1.40;;;39.20;69.60;38.70;99665;;;;546780;256;23199;-82
2023/08/28 06:21:36;;;;;;;1.70;1.60;;;39.20;69.70;39.10;99666;;;;546698;258;23181;-83
2023/08/28 06:24:04;;;;;;;4.07;1.95;;;39.50;62.70;39.30;99683;;;;546823;258;23234;-84
2023/08/28 06:26:31;;;;;;;1.98;1.87;;;39.80;75.60;39.90;99677;;;;554728;256;23260;-83
2023/08/28 06:28:59;;;;;;;1.90;1.80;;;40.30;66.40;40.20;99684;;;;546476;258;23176;-84
2023/08/28 06:31:27;;;;;;;1.67;1.50;;;40.70;63.90;40.50;99695;;;;546655;258;23187;-83
2023/08/28 06:33:55;;;;;;;3.97;2.25;;;41.00;66.00;41.10;99693;;;;546523;258;23157;-84
2023/08/28 06:36:23;;;;;;;4.37;1.87;;;41.40;55.90;41.30;99701;;;;546678;258;23183;-84
2023/08/28 06:38:52;;;;;;;4.60;2.60;;;41.70;56.90;41.60;99698;;;;546944;253;23147;-84
2023/08/28 06:41:22;;;;;;;3.30;1.90;;;42.00;57.00;41.80;99705;;;;544774;259;23175;-82
2023/08/28 06:43:50;;;;;;;3.20;1.90;;;42.20;54.50;42.00;99710;;;;544198;259;23182;-82
2023/08/28 06:46:18;;;;;;;6.07;2.50;;;42.50;54.40;42.50;99706;;;;541540;259;46540;-83
2023/08/28 06:48:48;;;;;;;2.65;1.87;;;43.00;51.40;42.90;99715;;;;546192;259;23140;-83
2023/08/28 06:51:17;;;;;;;1.75;1.50;;;43.30;51.50;43.40;99709;;;;545988;259;23169;-83
2023/08/28 06:53:42;;;;;;;1.95;1.85;;;43.80;51.00;43.80;99710;;;;544168;259;23178;-85
2023/08/28 06:56:10;;;;;;;3.17;1.60;;;44.50;47.90;44.10;99720;;;;546578;259;24226;-83
2023/08/28 06:58:38;;;;;;;1.60;1.50;;;44.40;47.80;44.10;99727;;;;553225;256;23207;-83
2023/08/28 07:01:06;;;;;;;2.22;1.40;;;44.60;48.20;44.10;99721;;;;550195;256;23216;-80
2023/08/28 07:03:34;;;;;;;1.73;1.65;;;44.60;47.20;44.10;99729;;;;569961;248;23085;-80
2023/08/28 07:06:02;;;;;;;4.22;1.55;;;44.60;47.50;44.10;99725;;;;567944;251;23182;-81
2023/08/28 07:08:30;;;;;;;1.55;1.50;;;44.50;47.20;44.20;99733;;;;568005;251;23116;-80
2023/08/28 07:10:58;;;;;;;1.48;1.40;;;44.60;47.10;44.40;99729;;;;570426;246;23109;-81
2023/08/28 07:13:26;;;;;;;1.30;1.30;;;44.60;46.00;44.40;99732;;;;583418;245;23111;-83
2023/08/28 07:15:57;;;;;;;1.52;1.50;;;44.70;47.20;44.90;99741;;;;583343;243;23103;-80
2023/08/28 07:18:24;;;;;;;1.70;1.60;;;45.00;45.50;45.00;99744;;;;574699;246;23137;-81
2023/08/28 07:20:55;;;;;;;1.65;1.55;;;45.20;46.30;45.30;99746;;;;583360;246;23076;-81
2023/08/28 07:23:20;;;;;;;1.30;1.30;;;45.40;45.10;45.60;99744;;;;573841;246;23151;-80
2023/08/28 07:25:49;;;;;;;1.67;1.58;;;45.90;44.50;45.70;99744;;;;583368;246;23131;-80
2023/08/28 07:28:17;;;;;;;1.60;1.60;;;45.80;44.40;45.70;99753;;;;574207;246;23096;-81
2023/08/28 07:30:45;;;;;;;1.98;1.33;;;45.90;44.60;45.80;99757;;;;574348;246;23108;-80
2023/08/28 07:33:13;;;;;;;2.65;1.58;;;46.00;43.80;46.10;99757;;;;582821;246;23143;-80
2023/08/28 07:35:47;;;;;;;2.33;2.12;;;46.20;43.60;46.20;99759;;;;582709;246;23127;-80
2023/08/28 07:38:13;;;;;;;1.73;1.62;;;46.40;43.90;46.30;99761;;;;573880;246;23135;-79
2023/08/28 07:40:42;;;;;;;1.80;1.70;;;46.60;42.90;46.40;99764;;;;578485;246;23106;-81
2023/08/28 07:43:07;;;;;;;1.60;1.50;;;46.60;42.50;46.40;99768;;;;573602;246;23109;-79
2023/08/28 07:45:36;;;;;;;3.75;1.77;;;46.80;42.20;46.60;99759;;;;582261;246;23096;-79
2023/08/28 07:48:04;;;;;;;1.60;1.60;;;46.90;42.20;46.70;99766;;;;582054;246;23084;-80
2023/08/28 07:50:31;;;;;;;1.60;1.50;;;47.10;42.20;47.00;99762;;;;582016;246;23107;-79
2023/08/28 07:53:02;;;;;;;2.45;1.75;;;47.10;41.50;47.00;99774;;;;573202;246;23102;-77
2023/08/28 07:55:30;;;;;;;2.80;1.65;;;47.30;41.50;47.00;99771;;;;573318;246;23090;-78
2023/08/28 07:57:56;;;;;;;2.15;1.58;;;46.70;40.40;45.90;99782;;;;573575;246;23131;-78
2023/08/28 08:00:24;;;;;;;1.87;1.77;;;46.60;40.30;44.60;99778;;;;582255;246;23104;-78
2023/08/28 08:02:56;;;;;;;2.47;1.90;;;45.60;41.30;44.50;99784;;;;582983;246;23104;-81
2023/08/28 08:05:20;;;;;;;3.00;2.80;;;45.10;42.00;44.20;99788;;;;574441;246;23124;-82
2023/08/28 08:07:49;;;;;;;2.33;1.87;;;44.80;42.50;43.60;99802;;;;582534;246;23097;-80
2023/08/28 08:10:16;;;;;;;2.33;2.12;;;44.30;43.00;43.00;99803;;;;582530;246;23092;-81
2023/08/28 08:12:45;;;;;;;1.83;1.73;;;43.70;44.10;42.30;99806;;;;582618;243;24132;-78
2023/08/28 08:15:15;;;;;;;2.85;2.55;;;43.10;44.40;41.10;99805;;;;582563;243;23146;-78
2023/08/28 08:17:40;;;;;;;3.50;1.70;;;42.20;44.70;40.10;99819;;;;573758;246;23135;-78
2023/08/28 08:20:10;;;;;;;5.57;2.12;;;41.20;45.90;39.50;99817;;;;582525;243;23125;-78
2023/08/28 08:22:44;;;;;;;2.87;1.80;;;40.40;47.40;39.20;99819;;;;583071;246;23147;-80
2023/08/28 08:25:12;;;;;;;2.28;2.08;;;39.80;48.00;38.80;99813;;;;575118;246;23130;-79
2023/08/28 08:27:41;;;;;;;2.42;2.22;;;39.50;48.50;39.60;99806;;;;574770;246;23237;-78
2023/08/28 08:30:05;;;;;;;3.33;2.17;;;39.80;48.90;40.60;99810;;;;583276;246;23095;-78
2023/08/28 08:32:33;;;;;;;2.22;2.12;;;40.70;47.50;40.30;99809;;;;574440;246;23111;-77
2023/08/28 08:35:01;;;;;;;3.55;2.10;;;40.20;46.80;39.00;99820;;;;583273;246;23138;-77
2023/08/28 08:37:29;;;;;;;2.37;1.90;;;40.10;46.70;37.30;99818;;;;574120;246;24285;-77
2023/08/28 08:39:57;;;;;;;2.35;2.15;;;38.80;47.70;37.10;99811;;;;582989;246;23162;-77
2023/08/28 08:42:26;;;;;;;2.60;2.20;;;38.10;49.00;37.20;99821;;;;582758;246;23091;-78
2023/08/28 08:44:58;;;;;;;2.70;2.50;;;37.90;49.30;37.90;99826;;;;578740;246;23101;-80
2023/08/28 08:47:22;;;;;;;2.55;2.45;;;38.20;49.70;39.30;99826;;;;574091;246;23146;-82
2023/08/28 08:49:51;;;;;;;3.42;3.12;;;40.80;47.30;40.80;99826;;;;568864;246;35231;-79
2023/08/28 08:52:21;;;;;;;3.00;2.80;;;42.00;46.00;41.70;99838;;;;573678;246;23160;-79
2023/08/28 08:54:49;;;;;;;3.80;2.45;;;42.00;46.00;42.40;99841;;;;573988;246;23143;-83
2023/08/28 08:57:17;;;;;;;2.50;2.40;;;42.80;44.60;43.20;99839;;;;573896;243;23170;-83
2023/08/28 08:59:45;;;;;;;3.17;2.35;;;43.70;43.40;43.70;99832;;;;570133;246;23108;-80
2023/08/28 09:02:14;;;;;;;4.80;4.35;;;44.40;42.50;43.80;99835;;;;574111;246;23134;-80
2023/08/28 09:04:41;;;;;;;3.33;2.80;;;44.80;41.70;44.20;99835;;;;574015;246;23097;-79
2023/08/28 09:07:09;;;;;;;2.87;2.78;;;45.10;41.60;44.40;99830;;;;573429;246;24170;-79
2023/08/28 09:09:38;;;;;;;4.97;4.43;;;45.60;40.90;44.50;99835;;;;573582;246;23163;-80
2023/08/28 09:12:10;;;;;;;3.25;2.80;;;45.60;40.50;44.40;99831;;;;578322;246;23088;-78
2023/08/28 09:14:35;;;;;;;4.78;3.00;;;45.60;40.50;44.50;99829;;;;573308;246;23099;-79
2023/08/28 09:17:03;;;;;;;2.78;2.67;;;45.70;40.50;45.10;99841;;;;582192;246;24148;-78
2023/08/28 09:19:31;;;;;;;4.80;4.37;;;46.10;40.10;45.30;99835;;;;578033;246;23127;-78
2023/08/28 09:21:58;;;;;;;3.85;2.83;;;46.50;40.20;45.50;99841;;;;573392;246;23138;-79
2023/08/28 09:24:26;;;;;;;3.15;3.05;;;46.90;39.10;45.40;99842;;;;582102;243;23092;-83
2023/08/28 09:26:54;;;;;;;5.45;2.80;;;47.00;39.10;45.30;99844;;;;582462;246;23105;-77
2023/08/28 09:29:26;;;;;;;2.87;2.67;;;46.90;39.00;45.60;99840;;;;573998;246;23162;-85
2023/08/28 09:31:53;;;;;;;3.00;2.80;;;47.00;39.20;46.10;99847;;;;573593;246;23127;-81
2023/08/28 09:34:22;;;;;;;3.78;2.83;;;47.40;38.90;47.00;99845;;;;573701;246;23194;-81
2023/08/28 09:36:50;;;;;;;3.53;2.72;;;48.20;38.70;46.90;99844;;;;574837;246;23157;-78
2023/08/28 09:39:14;;;;;;;2.85;2.60;;;48.50;38.00;46.90;99841;;;;574679;246;23157;-79
2023/08/28 09:41:48;;;;;;;3.08;2.30;;;48.50;37.70;46.50;99845;;;;583228;246;23087;-78
2023/08/28 09:44:21;;;;;;;2.35;2.25;;;48.20;36.60;46.20;99843;;;;574231;246;23127;-82
2023/08/28 09:46:49;;;;;;;2.53;2.40;;;48.00;36.60;46.00;99853;;;;574223;246;23120;-79
2023/08/28 09:49:20;;;;;;;2.28;2.17;;;47.70;36.50;46.00;99854;;;;583343;246;23111;-80
2023/08/28 09:51:51;;;;;;;2.90;2.70;;;47.70;36.90;45.90;99847;;;;573932;246;24185;-83
2023/08/28 09:54:19;;;;;;;2.25;2.15;;;47.70;37.10;45.70;99850;;;;583032;246;23268;-79
2023/08/28 09:56:47;;;;;;;2.70;2.50;;;47.50;37.30;45.80;99857;;;;573598;246;23106;-79
2023/08/28 09:59:15;;;;;;;2.28;2.17;;;47.60;37.00;46.10;99853;;;;582486;243;23117;-76
2023/08/28 10:01:47;;;;;;;3.65;2.03;;;47.70;37.40;46.40;99853;;;;582549;243;23091;-79
2023/08/28 10:04:14;;;;;;;2.12;2.00;;;48.50;36.00;46.50;99852;;;;573867;246;23103;-79
2023/08/28 10:06:52;;;;;;;2.55;2.30;;;47.80;37.20;45.70;99855;;;;573700;246;23108;-78
2023/08/28 10:09:18;;;;;;;2.37;2.28;;;47.10;37.70;44.50;99858;;;;573442;246;23109;-79
2023/08/28 10:11:45;;;;;;;2.28;2.17;;;47.00;37.70;42.60;99864;;;;573614;246;23149;-78
2023/08/28 10:14:14;;;;;;;1.95;1.90;;;45.20;38.70;41.30;99863;;;;573467;246;23148;-78
2023/08/28 10:16:48;;;;;;;2.33;2.10;;;43.40;40.10;39.60;99857;;;;571476;246;23090;-81
2023/08/28 10:19:24;;;;;;;2.12;2.03;;;41.60;41.90;38.00;99863;;;;573541;246;23177;-79
2023/08/28 10:21:52;;;;;;;3.17;2.25;;;39.80;43.90;36.70;99849;;;;573454;246;23132;-78
2023/08/28 10:24:21;;;;;;;1.90;1.80;;;38.30;45.40;35.50;99858;;;;573490;246;23105;-79
2023/08/28 10:26:49;;;;;;;3.25;1.90;;;37.00;46.00;34.30;99853;;;;571956;246;24149;-77
2023/08/28 10:29:18;;;;;;;2.33;2.03;;;34.50;49.60;33.40;99850;;;;573793;246;23102;-79
2023/08/28 10:31:47;;;;;;;1.85;1.75;;;33.50;51.30;32.50;99846;;;;572513;246;23100;-79
2023/08/28 10:34:14;;;;;;;2.45;1.87;;;33.40;51.20;31.80;99854;;;;573678;246;23130;-78
2023/08/28 10:36:44;;;;;;;1.67;1.58;;;32.70;53.10;31.30;99851;;;;583137;246;23198;-78
2023/08/28 10:39:12;;;;;;;1.45;1.40;;;32.00;54.20;30.40;99840;;;;574322;246;24150;-78
2023/08/28 10:41:41;;;;;;;2.03;1.92;;;31.10;54.70;29.70;99840;;;;583036;244;23100;-77
2023/08/28 10:44:09;;;;;;;1.98;1.87;;;30.30;56.60;28.80;99838;;;;574430;246;23119;-76
2023/08/28 10:46:41;;;;;;;2.60;1.50;;;29.40;57.50;28.20;99839;;;;574483;246;24137;-78
2023/08/28 10:49:05;;;;;;;1.80;1.70;;;28.70;59.70;27.70;99841;;;;570831;246;35239;-76
2023/08/28 10:51:37;;;;;;;1.83;1.58;;;27.60;61.10;27.20;99843;;;;575335;246;23125;-79
2023/08/28 10:54:04;;;;;;;2.25;1.70;;;27.50;61.00;26.80;99840;;;;574866;246;23092;-82
2023/08/28 10:56:38;;;;;;;1.73;1.42;;;27.20;61.70;26.50;99838;;;;575137;246;24115;-76
2023/08/28 10:59:25;;;;;;;1.90;1.80;;;26.80;62.60;26.20;99848;;;;574733;243;23138;-77
2023/08/28 11:01:55;;;;;;;2.12;1.90;;;26.50;64.70;26.00;99841;;;;574751;246;23135;-80
2023/08/28 11:04:23;;;;;;;2.10;1.97;;;26.20;67.80;25.70;99834;;;;570413;247;23169;-78
2023/08/28 11:06:54;;;;;;;1.53;1.30;;;26.00;68.30;25.50;99848;;;;560461;256;23236;-88
2023/08/28 11:09:29;;;;;;;1.53;1.43;;;25.80;68.50;25.20;99847;;;;556021;255;23223;-86
2023/08/28 11:12:03;;;;;;;1.43;1.33;;;25.50;66.40;24.90;99855;;;;566335;248;24096;-89
2023/08/28 11:14:45;;;;;;;1.55;1.40;;;25.00;65.90;24.60;99860;;;;559044;251;35509;-86
2023/08/28 11:17:16;;;;;;;1.40;1.30;;;24.90;65.80;24.30;99865;;;;558431;250;23115;-89
2023/08/28 11:19:57;;;;;;;1.87;1.77;;;24.70;65.90;24.10;99857;;;;564943;250;23137;-87
2023/08/28 11:22:41;;;;;;;1.27;1.27;;;24.50;68.00;23.90;99859;;;;563499;251;24182;-87
2023/08/28 11:25:17;;;;;;;1.33;1.30;;;24.30;69.70;23.80;99862;;;;555338;255;23157;-88